Aeroporto :
LOGIN :

Iscrizione | Disclaimer

   EN    FR    IT 

 










Sommario :    VFR   VFR Marginale   IFR   IFR Intensivo   IFR Molto Intensivo
Visibilità : 
Base nubi : 
>= 8 km
>= 3000ft
5 / 8 km
1000 / 3000 ft
1500m / 5 km
500 / 1000 ft
800 / 1500m
200 / 500 ft
< 800m
< 200 ft
Simboli :   Temporali  Nebbia  Neve Forte  Precipitazioni Forti  Vento > 20 kt
SIGMETs :   Varie  Temporali  Ghiacco  Turbolenza  Onda orograficha  Ceneri Vulcaniche






- Altitudine del aeroporto : 1306 ft
- Codice IATA : ACH


LSZR - Alten Rhein

ULTIMO METAR :
  • 200450Z AUTO 16001KT 9000 OVC028 04/03 Q1015

METARs OBSOLETI :
  • 200420Z AUTO 20002KT 8000 OVC027 04/03 Q1015
  • 200350Z AUTO 21001KT 8000 BKN029 04/03 Q1015
  • 200320Z AUTO VRB01KT 9000 OVC029 04/03 Q1016
  • 200250Z AUTO VRB02KT 9000 FEW013 OVC029 04/03 Q1016
  • 200220Z AUTO VRB02KT 9999 BKN012 SCT027 04/03 Q1016
  • 200150Z AUTO 25002KT 9000 OVC032 04/03 Q1016

Previsioni scadute.
ATIS : +41 71 858 51 66



MetMap, La meteo Aeronautica in un colpo d'occhio ! - Copyright ORBIFLY Dicembre 2007 - Disclaimer

ORBIFLY MET'MAP TEAM :

Programmazione e sviluppo : Alexandra Zaïnal
Concezione e sviluppo : Baudouin d'Aumeries
Co-Programmazione e sviluppo : Marc-Olivier Méhu
Supporto tecnico e logistico : Manuel Goepfert
Aiuto per la traduzione : Arnaldo La Scala

Contatto : metmap@orbifly.com




FONTI E CREDITI :

   NOAA